sensor_id;sensor_type;location;lat;lon;timestamp;temperature;humidity
14779;DHT22;7481;53.750;10.570;2022-07-23T00:02:31;16.10;99.90
14779;DHT22;7481;53.750;10.570;2022-07-23T00:05:18;16.20;99.90
14779;DHT22;7481;53.750;10.570;2022-07-23T00:08:06;16.20;99.90
14779;DHT22;7481;53.750;10.570;2022-07-23T00:10:56;16.10;99.90
14779;DHT22;7481;53.750;10.570;2022-07-23T00:13:44;16.10;99.90
14779;DHT22;7481;53.750;10.570;2022-07-23T00:16:31;16.10;99.90
14779;DHT22;7481;53.750;10.570;2022-07-23T00:19:18;16.10;99.90
14779;DHT22;7481;53.750;10.570;2022-07-23T00:22:05;16.10;99.90
14779;DHT22;7481;53.750;10.570;2022-07-23T00:24:52;16.10;99.90
14779;DHT22;7481;53.750;10.570;2022-07-23T00:28:00;16.00;99.90
14779;DHT22;7481;53.750;10.570;2022-07-23T00:30:47;16.10;99.90
14779;DHT22;7481;53.750;10.570;2022-07-23T00:33:35;16.00;99.90
14779;DHT22;7481;53.750;10.570;2022-07-23T00:36:25;16.00;99.90
14779;DHT22;7481;53.750;10.570;2022-07-23T00:39:12;16.00;99.90
14779;DHT22;7481;53.750;10.570;2022-07-23T00:41:59;15.90;99.90
14779;DHT22;7481;53.750;10.570;2022-07-23T00:44:46;15.90;99.90
14779;DHT22;7481;53.750;10.570;2022-07-23T00:47:34;15.90;99.90
14779;DHT22;7481;53.750;10.570;2022-07-23T00:50:21;15.90;99.90
14779;DHT22;7481;53.750;10.570;2022-07-23T00:53:08;15.90;99.90
14779;DHT22;7481;53.750;10.570;2022-07-23T00:55:55;15.90;99.90
14779;DHT22;7481;53.750;10.570;2022-07-23T00:58:42;15.90;99.90
14779;DHT22;7481;53.750;10.570;2022-07-23T01:01:29;15.90;99.90
14779;DHT22;7481;53.750;10.570;2022-07-23T01:04:16;15.90;99.90
14779;DHT22;7481;53.750;10.570;2022-07-23T01:07:04;15.90;99.90
14779;DHT22;7481;53.750;10.570;2022-07-23T01:09:52;16.00;99.90
14779;DHT22;7481;53.750;10.570;2022-07-23T01:12:39;16.00;99.90
14779;DHT22;7481;53.750;10.570;2022-07-23T01:15:26;15.90;99.90
14779;DHT22;7481;53.750;10.570;2022-07-23T01:18:13;15.80;99.90
14779;DHT22;7481;53.750;10.570;2022-07-23T01:21:00;15.70;99.90
14779;DHT22;7481;53.750;10.570;2022-07-23T01:23:47;15.70;99.90
14779;DHT22;7481;53.750;10.570;2022-07-23T01:26:35;15.80;99.90
14779;DHT22;7481;53.750;10.570;2022-07-23T01:29:22;15.60;99.90
14779;DHT22;7481;53.750;10.570;2022-07-23T01:32:09;15.60;99.90
14779;DHT22;7481;53.750;10.570;2022-07-23T01:34:56;15.50;99.90
14779;DHT22;7481;53.750;10.570;2022-07-23T01:37:43;15.40;99.90
14779;DHT22;7481;53.750;10.570;2022-07-23T01:40:30;15.40;99.90
14779;DHT22;7481;53.750;10.570;2022-07-23T01:43:17;15.40;99.90
14779;DHT22;7481;53.750;10.570;2022-07-23T01:46:04;15.50;99.90
14779;DHT22;7481;53.750;10.570;2022-07-23T01:48:52;15.50;99.90
14779;DHT22;7481;53.750;10.570;2022-07-23T01:51:39;15.50;99.90
14779;DHT22;7481;53.750;10.570;2022-07-23T01:54:46;15.50;99.90
14779;DHT22;7481;53.750;10.570;2022-07-23T01:57:33;15.50;99.90
14779;DHT22;7481;53.750;10.570;2022-07-23T02:00:20;15.70;99.90
14779;DHT22;7481;53.750;10.570;2022-07-23T02:03:07;16.40;99.90
14779;DHT22;7481;53.750;10.570;2022-07-23T02:05:56;15.40;99.90
14779;DHT22;7481;53.750;10.570;2022-07-23T02:08:43;15.30;99.90
14779;DHT22;7481;53.750;10.570;2022-07-23T02:11:30;15.30;99.90
14779;DHT22;7481;53.750;10.570;2022-07-23T02:14:17;15.30;99.90
14779;DHT22;7481;53.750;10.570;2022-07-23T02:17:04;15.20;99.90
14779;DHT22;7481;53.750;10.570;2022-07-23T02:19:51;15.20;99.90
14779;DHT22;7481;53.750;10.570;2022-07-23T02:22:38;15.20;99.90
14779;DHT22;7481;53.750;10.570;2022-07-23T02:25:25;15.30;99.90
14779;DHT22;7481;53.750;10.570;2022-07-23T02:28:12;15.20;99.90
14779;DHT22;7481;53.750;10.570;2022-07-23T02:30:59;15.10;99.90
14779;DHT22;7481;53.750;10.570;2022-07-23T02:33:47;15.10;99.90
14779;DHT22;7481;53.750;10.570;2022-07-23T02:36:34;15.10;99.90
14779;DHT22;7481;53.750;10.570;2022-07-23T02:39:21;15.10;99.90
14779;DHT22;7481;53.750;10.570;2022-07-23T02:42:08;15.10;99.90
14779;DHT22;7481;53.750;10.570;2022-07-23T02:44:55;15.10;99.90
14779;DHT22;7481;53.750;10.570;2022-07-23T02:47:42;15.10;99.90
14779;DHT22;7481;53.750;10.570;2022-07-23T02:50:29;15.00;99.90
14779;DHT22;7481;53.750;10.570;2022-07-23T02:53:16;15.00;99.90
14779;DHT22;7481;53.750;10.570;2022-07-23T02:56:03;16.00;99.90
14779;DHT22;7481;53.750;10.570;2022-07-23T02:58:50;15.00;99.90
14779;DHT22;7481;53.750;10.570;2022-07-23T03:01:37;14.90;99.90
14779;DHT22;7481;53.750;10.570;2022-07-23T03:04:24;14.90;99.90
14779;DHT22;7481;53.750;10.570;2022-07-23T03:07:11;14.90;99.90
14779;DHT22;7481;53.750;10.570;2022-07-23T03:09:59;14.90;99.90
14779;DHT22;7481;53.750;10.570;2022-07-23T03:12:46;15.00;99.90
14779;DHT22;7481;53.750;10.570;2022-07-23T03:15:33;15.00;99.90
14779;DHT22;7481;53.750;10.570;2022-07-23T03:18:20;15.10;99.90
14779;DHT22;7481;53.750;10.570;2022-07-23T03:21:07;15.20;99.90
14779;DHT22;7481;53.750;10.570;2022-07-23T03:23:54;15.30;99.90
14779;DHT22;7481;53.750;10.570;2022-07-23T03:26:41;15.30;99.90
14779;DHT22;7481;53.750;10.570;2022-07-23T03:29:28;15.30;99.90
14779;DHT22;7481;53.750;10.570;2022-07-23T03:32:15;15.30;99.90
14779;DHT22;7481;53.750;10.570;2022-07-23T03:35:02;15.30;99.90
14779;DHT22;7481;53.750;10.570;2022-07-23T03:37:52;15.40;99.90
14779;DHT22;7481;53.750;10.570;2022-07-23T03:40:40;15.40;99.90
14779;DHT22;7481;53.750;10.570;2022-07-23T03:43:27;15.50;99.90
14779;DHT22;7481;53.750;10.570;2022-07-23T03:46:14;15.40;99.90
14779;DHT22;7481;53.750;10.570;2022-07-23T03:49:01;15.50;99.90
14779;DHT22;7481;53.750;10.570;2022-07-23T03:51:48;15.40;99.90
14779;DHT22;7481;53.750;10.570;2022-07-23T03:54:35;15.40;99.90
14779;DHT22;7481;53.750;10.570;2022-07-23T03:57:22;15.30;99.90
14779;DHT22;7481;53.750;10.570;2022-07-23T04:00:11;15.20;99.90
14779;DHT22;7481;53.750;10.570;2022-07-23T04:02:59;15.20;99.90
14779;DHT22;7481;53.750;10.570;2022-07-23T04:05:46;15.20;99.90
14779;DHT22;7481;53.750;10.570;2022-07-23T04:08:33;15.20;99.90
14779;DHT22;7481;53.750;10.570;2022-07-23T04:11:21;15.20;99.90
14779;DHT22;7481;53.750;10.570;2022-07-23T04:14:08;15.20;99.90
14779;DHT22;7481;53.750;10.570;2022-07-23T04:16:55;15.30;99.90
14779;DHT22;7481;53.750;10.570;2022-07-23T04:19:42;15.40;99.90
14779;DHT22;7481;53.750;10.570;2022-07-23T04:22:30;15.70;99.90
14779;DHT22;7481;53.750;10.570;2022-07-23T04:25:17;15.50;99.90
14779;DHT22;7481;53.750;10.570;2022-07-23T04:28:04;15.50;99.90
14779;DHT22;7481;53.750;10.570;2022-07-23T04:30:51;15.50;99.90
14779;DHT22;7481;53.750;10.570;2022-07-23T04:33:38;15.60;99.90
14779;DHT22;7481;53.750;10.570;2022-07-23T04:36:25;15.60;99.90
14779;DHT22;7481;53.750;10.570;2022-07-23T04:39:12;15.70;99.90
14779;DHT22;7481;53.750;10.570;2022-07-23T04:41:59;15.70;99.90
14779;DHT22;7481;53.750;10.570;2022-07-23T04:44:46;15.80;99.90
14779;DHT22;7481;53.750;10.570;2022-07-23T04:47:34;15.70;99.90
14779;DHT22;7481;53.750;10.570;2022-07-23T04:50:21;15.70;99.90
14779;DHT22;7481;53.750;10.570;2022-07-23T04:53:08;15.70;99.90
14779;DHT22;7481;53.750;10.570;2022-07-23T04:55:55;15.80;99.90
14779;DHT22;7481;53.750;10.570;2022-07-23T04:58:42;15.80;99.90
14779;DHT22;7481;53.750;10.570;2022-07-23T05:01:29;15.80;99.90
14779;DHT22;7481;53.750;10.570;2022-07-23T05:04:16;15.80;99.90
14779;DHT22;7481;53.750;10.570;2022-07-23T05:07:03;15.80;99.90
14779;DHT22;7481;53.750;10.570;2022-07-23T05:09:50;15.80;99.90
14779;DHT22;7481;53.750;10.570;2022-07-23T05:12:37;15.80;99.90
14779;DHT22;7481;53.750;10.570;2022-07-23T05:15:25;15.80;99.90
14779;DHT22;7481;53.750;10.570;2022-07-23T05:18:12;15.80;99.90
14779;DHT22;7481;53.750;10.570;2022-07-23T05:20:59;16.90;99.90
14779;DHT22;7481;53.750;10.570;2022-07-23T05:23:46;15.70;99.90
14779;DHT22;7481;53.750;10.570;2022-07-23T05:26:32;15.70;99.90
14779;DHT22;7481;53.750;10.570;2022-07-23T05:29:19;15.70;99.90
14779;DHT22;7481;53.750;10.570;2022-07-23T05:32:06;15.70;99.90
14779;DHT22;7481;53.750;10.570;2022-07-23T05:34:53;15.70;99.90
14779;DHT22;7481;53.750;10.570;2022-07-23T05:37:40;15.70;99.90
14779;DHT22;7481;53.750;10.570;2022-07-23T05:40:27;15.70;99.90
14779;DHT22;7481;53.750;10.570;2022-07-23T05:43:14;15.70;99.90
14779;DHT22;7481;53.750;10.570;2022-07-23T05:46:01;16.90;99.90
14779;DHT22;7481;53.750;10.570;2022-07-23T05:48:48;15.70;99.90
14779;DHT22;7481;53.750;10.570;2022-07-23T05:51:36;15.60;99.90
14779;DHT22;7481;53.750;10.570;2022-07-23T05:54:23;15.70;99.90
14779;DHT22;7481;53.750;10.570;2022-07-23T05:57:10;15.60;99.90
14779;DHT22;7481;53.750;10.570;2022-07-23T05:59:57;15.70;99.90
14779;DHT22;7481;53.750;10.570;2022-07-23T06:02:44;15.70;99.90
14779;DHT22;7481;53.750;10.570;2022-07-23T06:05:31;15.70;99.90
14779;DHT22;7481;53.750;10.570;2022-07-23T06:08:18;15.70;99.90
14779;DHT22;7481;53.750;10.570;2022-07-23T06:11:05;15.60;99.90
14779;DHT22;7481;53.750;10.570;2022-07-23T06:13:52;15.60;99.90
14779;DHT22;7481;53.750;10.570;2022-07-23T06:16:39;15.60;99.90
14779;DHT22;7481;53.750;10.570;2022-07-23T06:19:26;15.60;99.90
14779;DHT22;7481;53.750;10.570;2022-07-23T06:22:13;16.00;99.90
14779;DHT22;7481;53.750;10.570;2022-07-23T06:25:00;15.70;99.90
14779;DHT22;7481;53.750;10.570;2022-07-23T06:27:47;15.80;99.90
14779;DHT22;7481;53.750;10.570;2022-07-23T06:30:34;15.90;99.90
14779;DHT22;7481;53.750;10.570;2022-07-23T06:33:21;13.70;99.90
14779;DHT22;7481;53.750;10.570;2022-07-23T06:36:08;16.10;99.90
14779;DHT22;7481;53.750;10.570;2022-07-23T06:38:55;16.30;99.90
14779;DHT22;7481;53.750;10.570;2022-07-23T06:41:43;16.50;99.90
14779;DHT22;7481;53.750;10.570;2022-07-23T06:44:36;16.70;99.90
14779;DHT22;7481;53.750;10.570;2022-07-23T06:47:23;16.90;99.90
14779;DHT22;7481;53.750;10.570;2022-07-23T06:50:10;16.80;99.90
14779;DHT22;7481;53.750;10.570;2022-07-23T06:52:57;16.80;99.90
14779;DHT22;7481;53.750;10.570;2022-07-23T06:55:44;16.80;99.90
14779;DHT22;7481;53.750;10.570;2022-07-23T06:58:32;16.70;99.90
14779;DHT22;7481;53.750;10.570;2022-07-23T07:01:19;16.70;99.90
14779;DHT22;7481;53.750;10.570;2022-07-23T07:04:06;16.70;99.90
14779;DHT22;7481;53.750;10.570;2022-07-23T07:06:53;16.60;99.90
14779;DHT22;7481;53.750;10.570;2022-07-23T07:09:40;16.50;99.90
14779;DHT22;7481;53.750;10.570;2022-07-23T07:12:27;16.50;99.90
14779;DHT22;7481;53.750;10.570;2022-07-23T07:15:14;16.60;99.90
14779;DHT22;7481;53.750;10.570;2022-07-23T07:18:01;16.60;99.90
14779;DHT22;7481;53.750;10.570;2022-07-23T07:20:48;16.60;99.90
14779;DHT22;7481;53.750;10.570;2022-07-23T07:23:36;16.70;99.90
14779;DHT22;7481;53.750;10.570;2022-07-23T07:26:23;16.80;99.90
14779;DHT22;7481;53.750;10.570;2022-07-23T07:29:11;17.00;99.90
14779;DHT22;7481;53.750;10.570;2022-07-23T07:31:58;17.10;99.90
14779;DHT22;7481;53.750;10.570;2022-07-23T07:34:45;17.30;99.90
14779;DHT22;7481;53.750;10.570;2022-07-23T07:37:32;17.50;99.90
14779;DHT22;7481;53.750;10.570;2022-07-23T07:40:20;17.70;99.90
14779;DHT22;7481;53.750;10.570;2022-07-23T07:43:07;17.80;99.90
14779;DHT22;7481;53.750;10.570;2022-07-23T07:45:54;18.10;99.90
14779;DHT22;7481;53.750;10.570;2022-07-23T07:48:41;18.20;99.90
14779;DHT22;7481;53.750;10.570;2022-07-23T07:51:28;18.40;99.90
14779;DHT22;7481;53.750;10.570;2022-07-23T07:54:16;18.90;99.90
14779;DHT22;7481;53.750;10.570;2022-07-23T07:57:03;19.40;99.90
14779;DHT22;7481;53.750;10.570;2022-07-23T07:59:54;19.40;99.90
14779;DHT22;7481;53.750;10.570;2022-07-23T08:02:47;19.20;99.90
14779;DHT22;7481;53.750;10.570;2022-07-23T08:05:35;19.40;99.90
14779;DHT22;7481;53.750;10.570;2022-07-23T08:08:22;19.50;99.90
14779;DHT22;7481;53.750;10.570;2022-07-23T08:11:09;19.50;99.90
14779;DHT22;7481;53.750;10.570;2022-07-23T08:13:56;19.40;99.90
14779;DHT22;7481;53.750;10.570;2022-07-23T08:16:43;19.30;99.90
14779;DHT22;7481;53.750;10.570;2022-07-23T08:19:50;18.90;99.90
14779;DHT22;7481;53.750;10.570;2022-07-23T08:25:34;18.70;99.90
14779;DHT22;7481;53.750;10.570;2022-07-23T08:28:22;19.20;99.90
14779;DHT22;7481;53.750;10.570;2022-07-23T08:31:09;19.90;99.90
14779;DHT22;7481;53.750;10.570;2022-07-23T08:33:59;20.60;99.90
14779;DHT22;7481;53.750;10.570;2022-07-23T08:36:47;21.00;99.90
14779;DHT22;7481;53.750;10.570;2022-07-23T08:39:33;20.70;99.90
14779;DHT22;7481;53.750;10.570;2022-07-23T08:42:21;20.00;99.90
14779;DHT22;7481;53.750;10.570;2022-07-23T08:45:08;19.30;99.90
14779;DHT22;7481;53.750;10.570;2022-07-23T08:47:57;19.10;99.90
14779;DHT22;7481;53.750;10.570;2022-07-23T08:50:54;19.40;99.90
14779;DHT22;7481;53.750;10.570;2022-07-23T08:53:44;20.10;99.90
14779;DHT22;7481;53.750;10.570;2022-07-23T08:56:32;20.90;99.90
14779;DHT22;7481;53.750;10.570;2022-07-23T08:59:19;21.40;99.90
14779;DHT22;7481;53.750;10.570;2022-07-23T09:02:06;21.90;99.90
14779;DHT22;7481;53.750;10.570;2022-07-23T09:04:53;22.00;99.90
14779;DHT22;7481;53.750;10.570;2022-07-23T09:08:06;21.70;99.90
14779;DHT22;7481;53.750;10.570;2022-07-23T09:11:02;21.20;99.90
14779;DHT22;7481;53.750;10.570;2022-07-23T09:13:53;20.70;99.90
14779;DHT22;7481;53.750;10.570;2022-07-23T09:16:40;20.20;99.90
14779;DHT22;7481;53.750;10.570;2022-07-23T09:19:28;19.80;99.90
14779;DHT22;7481;53.750;10.570;2022-07-23T09:22:24;19.50;99.90
14779;DHT22;7481;53.750;10.570;2022-07-23T09:25:16;19.30;99.90
14779;DHT22;7481;53.750;10.570;2022-07-23T09:28:03;19.30;99.90
14779;DHT22;7481;53.750;10.570;2022-07-23T09:30:51;19.50;99.90
14779;DHT22;7481;53.750;10.570;2022-07-23T09:33:38;19.60;99.90
14779;DHT22;7481;53.750;10.570;2022-07-23T09:36:29;20.10;99.90
14779;DHT22;7481;53.750;10.570;2022-07-23T09:39:31;20.10;99.90
14779;DHT22;7481;53.750;10.570;2022-07-23T09:42:25;19.90;99.90
14779;DHT22;7481;53.750;10.570;2022-07-23T09:45:13;19.80;99.90
14779;DHT22;7481;53.750;10.570;2022-07-23T09:48:14;19.80;99.90
14779;DHT22;7481;53.750;10.570;2022-07-23T09:51:04;20.00;99.90
14779;DHT22;7481;53.750;10.570;2022-07-23T09:53:52;20.10;99.90
14779;DHT22;7481;53.750;10.570;2022-07-23T09:56:39;20.20;99.90
14779;DHT22;7481;53.750;10.570;2022-07-23T09:59:29;20.20;99.90
14779;DHT22;7481;53.750;10.570;2022-07-23T10:02:17;19.90;99.90
14779;DHT22;7481;53.750;10.570;2022-07-23T10:05:06;20.00;99.90
14779;DHT22;7481;53.750;10.570;2022-07-23T10:07:54;20.20;99.90
14779;DHT22;7481;53.750;10.570;2022-07-23T10:10:41;20.40;99.90
14779;DHT22;7481;53.750;10.570;2022-07-23T10:13:29;20.40;99.90
14779;DHT22;7481;53.750;10.570;2022-07-23T10:16:50;20.20;99.90
14779;DHT22;7481;53.750;10.570;2022-07-23T10:19:37;20.20;99.90
14779;DHT22;7481;53.750;10.570;2022-07-23T10:22:27;20.20;99.90
14779;DHT22;7481;53.750;10.570;2022-07-23T10:25:27;20.20;99.90
14779;DHT22;7481;53.750;10.570;2022-07-23T10:31:35;20.30;99.90
14779;DHT22;7481;53.750;10.570;2022-07-23T10:34:53;20.30;99.90
14779;DHT22;7481;53.750;10.570;2022-07-23T10:37:45;20.00;99.90
14779;DHT22;7481;53.750;10.570;2022-07-23T10:40:34;19.90;99.90
14779;DHT22;7481;53.750;10.570;2022-07-23T10:43:21;19.70;99.90
14779;DHT22;7481;53.750;10.570;2022-07-23T10:46:25;19.40;99.90
14779;DHT22;7481;53.750;10.570;2022-07-23T10:49:32;19.00;99.90
14779;DHT22;7481;53.750;10.570;2022-07-23T10:52:25;18.80;99.90
14779;DHT22;7481;53.750;10.570;2022-07-23T10:55:49;18.80;99.90
14779;DHT22;7481;53.750;10.570;2022-07-23T10:58:49;18.90;99.90
14779;DHT22;7481;53.750;10.570;2022-07-23T11:01:39;19.00;99.90
14779;DHT22;7481;53.750;10.570;2022-07-23T11:05:06;19.20;99.90
14779;DHT22;7481;53.750;10.570;2022-07-23T11:13:49;19.60;99.90
14779;DHT22;7481;53.750;10.570;2022-07-23T11:16:47;19.60;99.90
14779;DHT22;7481;53.750;10.570;2022-07-23T11:23:02;20.20;99.90
14779;DHT22;7481;53.750;10.570;2022-07-23T11:25:50;20.70;99.90
14779;DHT22;7481;53.750;10.570;2022-07-23T11:28:37;22.10;99.90
14779;DHT22;7481;53.750;10.570;2022-07-23T11:31:25;22.00;99.90
14779;DHT22;7481;53.750;10.570;2022-07-23T11:34:46;22.40;99.90
14779;DHT22;7481;53.750;10.570;2022-07-23T11:37:35;22.30;99.90
14779;DHT22;7481;53.750;10.570;2022-07-23T11:40:22;22.00;99.90
14779;DHT22;7481;53.750;10.570;2022-07-23T11:43:10;22.00;99.90
14779;DHT22;7481;53.750;10.570;2022-07-23T11:45:59;22.10;99.90
14779;DHT22;7481;53.750;10.570;2022-07-23T11:49:01;22.40;99.90
14779;DHT22;7481;53.750;10.570;2022-07-23T11:54:54;22.20;99.90
14779;DHT22;7481;53.750;10.570;2022-07-23T11:57:42;22.00;99.90
14779;DHT22;7481;53.750;10.570;2022-07-23T12:00:30;21.90;99.90
14779;DHT22;7481;53.750;10.570;2022-07-23T12:03:24;21.90;99.90
14779;DHT22;7481;53.750;10.570;2022-07-23T12:06:12;21.70;99.90
14779;DHT22;7481;53.750;10.570;2022-07-23T12:08:59;21.50;99.90
14779;DHT22;7481;53.750;10.570;2022-07-23T12:12:00;21.50;99.90
14779;DHT22;7481;53.750;10.570;2022-07-23T12:14:51;21.60;99.90
14779;DHT22;7481;53.750;10.570;2022-07-23T12:17:41;21.60;99.90
14779;DHT22;7481;53.750;10.570;2022-07-23T12:20:38;21.50;99.90
14779;DHT22;7481;53.750;10.570;2022-07-23T12:23:26;21.20;99.90
14779;DHT22;7481;53.750;10.570;2022-07-23T12:26:13;21.10;99.90
14779;DHT22;7481;53.750;10.570;2022-07-23T12:29:00;21.00;99.90
14779;DHT22;7481;53.750;10.570;2022-07-23T12:31:47;21.10;99.90
14779;DHT22;7481;53.750;10.570;2022-07-23T12:34:34;21.40;99.90
14779;DHT22;7481;53.750;10.570;2022-07-23T12:37:32;21.80;99.90
14779;DHT22;7481;53.750;10.570;2022-07-23T12:40:28;22.30;99.90
14779;DHT22;7481;53.750;10.570;2022-07-23T12:46:12;22.90;99.90
14779;DHT22;7481;53.750;10.570;2022-07-23T12:49:01;22.90;99.90
14779;DHT22;7481;53.750;10.570;2022-07-23T12:51:49;22.90;99.90
14779;DHT22;7481;53.750;10.570;2022-07-23T12:54:36;22.80;99.90
14779;DHT22;7481;53.750;10.570;2022-07-23T12:57:45;21.50;99.90
14779;DHT22;7481;53.750;10.570;2022-07-23T13:00:58;23.20;99.90
14779;DHT22;7481;53.750;10.570;2022-07-23T13:07:00;22.90;99.90
14779;DHT22;7481;53.750;10.570;2022-07-23T13:09:51;22.40;99.90
14779;DHT22;7481;53.750;10.570;2022-07-23T13:12:38;22.10;99.90
14779;DHT22;7481;53.750;10.570;2022-07-23T13:15:25;22.00;99.90
14779;DHT22;7481;53.750;10.570;2022-07-23T13:18:12;21.90;99.90
14779;DHT22;7481;53.750;10.570;2022-07-23T13:21:00;21.90;99.90
14779;DHT22;7481;53.750;10.570;2022-07-23T13:23:48;21.90;99.90
14779;DHT22;7481;53.750;10.570;2022-07-23T13:26:36;22.00;99.90
14779;DHT22;7481;53.750;10.570;2022-07-23T13:29:24;21.90;99.90
14779;DHT22;7481;53.750;10.570;2022-07-23T13:32:12;21.90;99.90
14779;DHT22;7481;53.750;10.570;2022-07-23T13:34:59;22.00;99.90
14779;DHT22;7481;53.750;10.570;2022-07-23T13:37:48;22.20;99.90
14779;DHT22;7481;53.750;10.570;2022-07-23T13:40:37;22.20;99.90
14779;DHT22;7481;53.750;10.570;2022-07-23T13:43:25;22.00;99.90
14779;DHT22;7481;53.750;10.570;2022-07-23T13:46:18;21.90;99.90
14779;DHT22;7481;53.750;10.570;2022-07-23T13:49:07;22.30;99.90
14779;DHT22;7481;53.750;10.570;2022-07-23T13:51:56;22.10;99.90
14779;DHT22;7481;53.750;10.570;2022-07-23T13:54:44;22.10;99.90
14779;DHT22;7481;53.750;10.570;2022-07-23T13:57:32;21.90;99.90
14779;DHT22;7481;53.750;10.570;2022-07-23T14:00:19;21.80;99.90
14779;DHT22;7481;53.750;10.570;2022-07-23T14:03:26;21.70;99.90
14779;DHT22;7481;53.750;10.570;2022-07-23T14:06:13;21.50;99.90
14779;DHT22;7481;53.750;10.570;2022-07-23T14:09:03;21.30;99.90
14779;DHT22;7481;53.750;10.570;2022-07-23T14:11:50;21.10;99.90
14779;DHT22;7481;53.750;10.570;2022-07-23T14:14:38;20.90;99.90
14779;DHT22;7481;53.750;10.570;2022-07-23T14:17:25;20.90;99.90
14779;DHT22;7481;53.750;10.570;2022-07-23T14:20:14;20.80;99.90
14779;DHT22;7481;53.750;10.570;2022-07-23T14:23:01;20.80;99.90
14779;DHT22;7481;53.750;10.570;2022-07-23T14:25:51;20.90;99.90
14779;DHT22;7481;53.750;10.570;2022-07-23T14:28:40;20.90;99.90
14779;DHT22;7481;53.750;10.570;2022-07-23T14:31:27;21.10;99.90
14779;DHT22;7481;53.750;10.570;2022-07-23T14:34:14;21.20;99.90
14779;DHT22;7481;53.750;10.570;2022-07-23T14:37:01;21.20;99.90
14779;DHT22;7481;53.750;10.570;2022-07-23T14:39:51;21.40;99.90
14779;DHT22;7481;53.750;10.570;2022-07-23T14:42:38;21.40;99.90
14779;DHT22;7481;53.750;10.570;2022-07-23T14:45:25;21.40;99.90
14779;DHT22;7481;53.750;10.570;2022-07-23T14:48:13;21.30;99.90
14779;DHT22;7481;53.750;10.570;2022-07-23T14:51:00;21.20;99.90
14779;DHT22;7481;53.750;10.570;2022-07-23T14:53:48;21.20;99.90
14779;DHT22;7481;53.750;10.570;2022-07-23T14:56:35;21.20;99.90
14779;DHT22;7481;53.750;10.570;2022-07-23T14:59:23;21.10;99.90
14779;DHT22;7481;53.750;10.570;2022-07-23T15:02:10;21.10;99.90
14779;DHT22;7481;53.750;10.570;2022-07-23T15:04:59;21.10;99.90
14779;DHT22;7481;53.750;10.570;2022-07-23T15:07:48;21.00;99.90
14779;DHT22;7481;53.750;10.570;2022-07-23T15:10:36;20.90;99.90
14779;DHT22;7481;53.750;10.570;2022-07-23T15:13:23;20.90;99.90
14779;DHT22;7481;53.750;10.570;2022-07-23T15:16:14;21.00;99.90
14779;DHT22;7481;53.750;10.570;2022-07-23T15:19:02;21.00;99.90
14779;DHT22;7481;53.750;10.570;2022-07-23T15:21:51;21.10;99.90
14779;DHT22;7481;53.750;10.570;2022-07-23T15:24:38;21.20;99.90
14779;DHT22;7481;53.750;10.570;2022-07-23T15:27:26;21.20;99.90
14779;DHT22;7481;53.750;10.570;2022-07-23T15:30:16;21.40;99.90
14779;DHT22;7481;53.750;10.570;2022-07-23T15:33:04;21.20;99.90
14779;DHT22;7481;53.750;10.570;2022-07-23T15:35:52;21.00;99.90
14779;DHT22;7481;53.750;10.570;2022-07-23T15:38:41;20.80;99.90
14779;DHT22;7481;53.750;10.570;2022-07-23T15:41:30;20.80;99.90
14779;DHT22;7481;53.750;10.570;2022-07-23T15:44:17;20.80;99.90
14779;DHT22;7481;53.750;10.570;2022-07-23T15:47:16;20.80;99.90
14779;DHT22;7481;53.750;10.570;2022-07-23T15:50:04;20.70;99.90
14779;DHT22;7481;53.750;10.570;2022-07-23T15:52:51;20.60;99.90
14779;DHT22;7481;53.750;10.570;2022-07-23T15:55:39;20.60;99.90
14779;DHT22;7481;53.750;10.570;2022-07-23T15:58:28;20.70;99.90
14779;DHT22;7481;53.750;10.570;2022-07-23T16:01:15;20.80;99.90
14779;DHT22;7481;53.750;10.570;2022-07-23T16:04:03;20.70;99.90
14779;DHT22;7481;53.750;10.570;2022-07-23T16:06:50;20.60;99.90
14779;DHT22;7481;53.750;10.570;2022-07-23T16:09:37;20.50;99.90
14779;DHT22;7481;53.750;10.570;2022-07-23T16:12:24;20.50;99.90
14779;DHT22;7481;53.750;10.570;2022-07-23T16:15:11;20.40;99.90
14779;DHT22;7481;53.750;10.570;2022-07-23T16:17:58;20.20;99.90
14779;DHT22;7481;53.750;10.570;2022-07-23T16:20:45;20.20;99.90
14779;DHT22;7481;53.750;10.570;2022-07-23T16:23:32;20.30;99.90
14779;DHT22;7481;53.750;10.570;2022-07-23T16:26:19;20.40;99.90
14779;DHT22;7481;53.750;10.570;2022-07-23T16:29:07;20.30;99.90
14779;DHT22;7481;53.750;10.570;2022-07-23T16:32:06;20.30;99.90
14779;DHT22;7481;53.750;10.570;2022-07-23T16:34:53;20.20;99.90
14779;DHT22;7481;53.750;10.570;2022-07-23T16:37:41;20.10;99.90
14779;DHT22;7481;53.750;10.570;2022-07-23T16:40:29;20.00;99.90
14779;DHT22;7481;53.750;10.570;2022-07-23T16:43:16;20.00;99.90
14779;DHT22;7481;53.750;10.570;2022-07-23T16:46:03;19.90;99.90
14779;DHT22;7481;53.750;10.570;2022-07-23T16:48:51;19.80;99.90
14779;DHT22;7481;53.750;10.570;2022-07-23T16:51:38;19.90;99.90
14779;DHT22;7481;53.750;10.570;2022-07-23T16:54:25;19.90;99.90
14779;DHT22;7481;53.750;10.570;2022-07-23T16:57:12;19.90;99.90
14779;DHT22;7481;53.750;10.570;2022-07-23T16:59:59;18.60;99.90
14779;DHT22;7481;53.750;10.570;2022-07-23T17:02:46;19.80;99.90
14779;DHT22;7481;53.750;10.570;2022-07-23T17:05:33;19.80;99.90
14779;DHT22;7481;53.750;10.570;2022-07-23T17:08:20;19.90;99.90
14779;DHT22;7481;53.750;10.570;2022-07-23T17:11:07;20.10;99.90
14779;DHT22;7481;53.750;10.570;2022-07-23T17:13:54;20.10;99.90
14779;DHT22;7481;53.750;10.570;2022-07-23T17:16:41;20.00;99.90
14779;DHT22;7481;53.750;10.570;2022-07-23T17:19:29;19.80;99.90
14779;DHT22;7481;53.750;10.570;2022-07-23T17:22:16;19.60;99.90
14779;DHT22;7481;53.750;10.570;2022-07-23T17:25:04;19.50;99.90
14779;DHT22;7481;53.750;10.570;2022-07-23T17:27:56;19.40;99.90
14779;DHT22;7481;53.750;10.570;2022-07-23T17:30:43;19.30;99.90
14779;DHT22;7481;53.750;10.570;2022-07-23T17:33:30;19.20;99.90
14779;DHT22;7481;53.750;10.570;2022-07-23T17:36:17;19.10;99.90
14779;DHT22;7481;53.750;10.570;2022-07-23T17:39:05;19.10;99.90
14779;DHT22;7481;53.750;10.570;2022-07-23T17:41:53;19.20;99.90
14779;DHT22;7481;53.750;10.570;2022-07-23T17:44:40;19.10;99.90
14779;DHT22;7481;53.750;10.570;2022-07-23T17:47:27;19.10;99.90
14779;DHT22;7481;53.750;10.570;2022-07-23T17:50:14;19.10;99.90
14779;DHT22;7481;53.750;10.570;2022-07-23T17:53:02;19.00;99.90
14779;DHT22;7481;53.750;10.570;2022-07-23T17:55:51;19.00;99.90
14779;DHT22;7481;53.750;10.570;2022-07-23T17:58:39;19.00;99.90
14779;DHT22;7481;53.750;10.570;2022-07-23T18:01:26;18.90;99.90
14779;DHT22;7481;53.750;10.570;2022-07-23T18:04:13;18.90;99.90
14779;DHT22;7481;53.750;10.570;2022-07-23T18:07:00;18.80;99.90
14779;DHT22;7481;53.750;10.570;2022-07-23T18:09:47;18.80;99.90
14779;DHT22;7481;53.750;10.570;2022-07-23T18:12:35;18.80;99.90